createdAt,value
2019-01-02T00:00:03.597Z,8.50
2019-01-02T00:00:43.421Z,8.73
2019-01-02T00:01:22.743Z,8.20
2019-01-02T00:02:02.237Z,8.15
2019-01-02T00:02:41.010Z,7.87
2019-01-02T00:03:20.370Z,8.98
2019-01-02T00:03:59.449Z,8.55
2019-01-02T00:04:38.553Z,7.90
2019-01-02T00:05:17.748Z,7.80
2019-01-02T00:05:56.891Z,7.80
2019-01-02T00:06:36.268Z,8.53
2019-01-02T00:07:15.784Z,9.05
2019-01-02T00:07:55.200Z,8.63
2019-01-02T00:08:34.826Z,8.20
2019-01-02T00:09:14.286Z,9.08
2019-01-02T00:09:53.440Z,8.40
2019-01-02T00:10:32.750Z,8.68
2019-01-02T00:11:12.267Z,7.80
2019-01-02T00:11:51.284Z,8.40
2019-01-02T00:12:30.359Z,8.90
2019-01-02T00:13:09.552Z,8.10
2019-01-02T00:13:48.237Z,8.10
2019-01-02T00:14:27.451Z,7.75
2019-01-02T00:15:06.808Z,7.65
2019-01-02T00:15:47.668Z,7.90
2019-01-02T00:16:28.990Z,8.40
2019-01-02T00:17:07.678Z,8.88
2019-01-02T00:17:46.325Z,8.05
2019-01-02T00:18:25.956Z,8.08
2019-01-02T00:19:05.490Z,8.43
2019-01-02T00:19:44.369Z,7.90
2019-01-02T00:20:23.047Z,8.93
2019-01-02T00:21:01.839Z,7.60
2019-01-02T00:21:41.217Z,7.72
2019-01-02T00:22:19.823Z,8.30
2019-01-02T00:22:58.969Z,7.90
2019-01-02T00:23:41.036Z,7.70
2019-01-02T00:24:19.736Z,7.75
2019-01-02T00:24:58.381Z,8.00
2019-01-02T00:25:37.419Z,7.47
2019-01-02T00:26:16.362Z,7.83
2019-01-02T00:26:55.935Z,8.05
2019-01-02T00:27:35.235Z,7.87
2019-01-02T00:28:14.658Z,8.40
2019-01-02T00:28:53.350Z,8.15
2019-01-02T00:29:33.346Z,7.90
2019-01-02T00:30:12.367Z,8.38
2019-01-02T00:30:52.332Z,8.18
2019-01-02T00:31:31.124Z,8.50
2019-01-02T00:32:09.883Z,8.38
2019-01-02T00:32:48.892Z,8.55
2019-01-02T00:33:27.579Z,8.10
2019-01-02T00:34:07.204Z,8.00
2019-01-02T00:34:45.857Z,7.17
2019-01-02T00:35:25.274Z,8.50
2019-01-02T00:36:04.975Z,7.60
2019-01-02T00:36:44.294Z,7.97
2019-01-02T00:37:23.978Z,8.90
2019-01-02T00:38:03.468Z,7.78
2019-01-02T00:38:42.587Z,7.73
2019-01-02T00:39:21.630Z,8.95
2019-01-02T00:40:00.422Z,8.60
2019-01-02T00:40:39.460Z,9.53
2019-01-02T00:41:18.593Z,8.60
2019-01-02T00:41:59.904Z,9.50
2019-01-02T00:42:39.341Z,9.53
2019-01-02T00:43:18.336Z,8.70
2019-01-02T00:43:57.919Z,9.05
2019-01-02T00:44:37.325Z,8.83
2019-01-02T00:45:22.208Z,9.78
2019-01-02T00:45:57.932Z,8.50
2019-01-02T00:46:37.063Z,8.40
2019-01-02T00:47:16.544Z,8.45
2019-01-02T00:47:55.791Z,8.93
2019-01-02T00:48:34.472Z,8.90
2019-01-02T00:49:13.317Z,8.03
2019-01-02T00:49:52.004Z,8.25
2019-01-02T00:50:31.238Z,8.10
2019-01-02T00:51:09.907Z,7.97
2019-01-02T00:51:49.044Z,8.20
2019-01-02T00:52:28.830Z,8.40
2019-01-02T00:53:07.516Z,8.48
2019-01-02T00:53:46.849Z,8.48
2019-01-02T00:54:26.015Z,8.03
2019-01-02T00:55:05.386Z,9.00
2019-01-02T00:55:45.073Z,9.78
2019-01-02T00:56:24.151Z,9.73
2019-01-02T00:57:03.220Z,10.08
2019-01-02T00:57:41.860Z,11.38
2019-01-02T00:58:20.501Z,12.70
2019-01-02T00:58:59.869Z,12.00
2019-01-02T00:59:42.168Z,12.75
2019-01-02T01:00:30.548Z,12.05
2019-01-02T01:01:09.858Z,12.50
2019-01-02T01:01:50.233Z,11.30
2019-01-02T01:02:29.942Z,11.75
2019-01-02T01:03:09.242Z,11.10
2019-01-02T01:03:49.374Z,11.40
2019-01-02T01:04:28.827Z,10.20
2019-01-02T01:05:07.911Z,10.63
2019-01-02T01:05:47.457Z,14.40
2019-01-02T01:06:27.765Z,13.00
2019-01-02T01:07:07.418Z,12.18
2019-01-02T01:07:46.292Z,11.18
2019-01-02T01:08:25.646Z,11.30
2019-01-02T01:09:04.647Z,11.45
2019-01-02T01:09:44.410Z,11.20
2019-01-02T01:10:23.172Z,10.43
2019-01-02T01:11:02.069Z,12.18
2019-01-02T01:11:41.333Z,10.32
2019-01-02T01:12:21.120Z,10.95
2019-01-02T01:13:00.186Z,10.72
2019-01-02T01:13:39.594Z,9.70
2019-01-02T01:14:18.571Z,10.63
2019-01-02T01:14:57.772Z,10.30
2019-01-02T01:15:37.202Z,14.47
2019-01-02T01:16:15.846Z,12.93
2019-01-02T01:16:55.104Z,14.38
2019-01-02T01:17:34.667Z,16.80
2019-01-02T01:18:13.465Z,16.77
2019-01-02T01:18:54.500Z,17.52
2019-01-02T01:19:33.248Z,19.92
2019-01-02T01:20:13.066Z,17.95
2019-01-02T01:20:51.937Z,17.73
2019-01-02T01:21:31.328Z,18.95
2019-01-02T01:22:10.788Z,19.57
2019-01-02T01:22:49.734Z,16.75
2019-01-02T01:23:29.241Z,14.95
2019-01-02T01:24:08.159Z,14.47
2019-01-02T01:24:47.591Z,13.10
2019-01-02T01:25:26.590Z,12.65
2019-01-02T01:26:05.431Z,12.95
2019-01-02T01:26:44.339Z,15.13
2019-01-02T01:27:23.698Z,14.47
2019-01-02T01:28:02.991Z,14.60
2019-01-02T01:28:41.711Z,18.90
2019-01-02T01:29:20.994Z,15.28
2019-01-02T01:30:00.538Z,13.70
2019-01-02T01:30:39.313Z,14.45
2019-01-02T01:31:20.042Z,16.32
2019-01-02T01:31:59.543Z,15.25
2019-01-02T01:32:38.832Z,14.90
2019-01-02T01:33:17.657Z,18.35
2019-01-02T01:33:56.356Z,23.75
2019-01-02T01:34:35.856Z,24.77
2019-01-02T01:35:16.553Z,23.57
2019-01-02T01:35:56.183Z,25.17
2019-01-02T01:36:35.801Z,29.77
2019-01-02T01:37:14.805Z,28.27
2019-01-02T01:37:58.147Z,25.00
2019-01-02T01:38:36.948Z,24.90
2019-01-02T01:39:15.620Z,18.40
2019-01-02T01:39:54.325Z,14.78
2019-01-02T01:40:33.546Z,15.00
2019-01-02T01:41:12.251Z,15.63
2019-01-02T01:41:51.233Z,14.93
2019-01-02T01:42:30.587Z,14.53
2019-01-02T01:43:09.346Z,14.43
2019-01-02T01:43:48.424Z,14.13
2019-01-02T01:44:27.221Z,14.07
2019-01-02T01:45:06.278Z,13.03
2019-01-02T01:45:44.974Z,11.83
2019-01-02T01:46:24.112Z,11.63
2019-01-02T01:47:03.640Z,11.90
2019-01-02T01:47:43.186Z,10.38
2019-01-02T01:48:23.407Z,8.90
2019-01-02T01:49:02.883Z,9.35
2019-01-02T01:49:42.568Z,9.10
2019-01-02T01:50:21.820Z,8.70
2019-01-02T01:51:02.152Z,8.98
2019-01-02T01:51:41.392Z,8.60
2019-01-02T01:52:20.606Z,8.73
2019-01-02T01:53:00.388Z,7.85
2019-01-02T01:53:39.992Z,7.60
2019-01-02T01:54:19.108Z,8.50
2019-01-02T01:54:57.767Z,8.73
2019-01-02T01:55:36.529Z,7.97
2019-01-02T01:56:15.122Z,8.58
2019-01-02T01:56:54.434Z,8.40
2019-01-02T01:57:34.090Z,8.75
2019-01-02T01:58:13.305Z,8.80
2019-01-02T01:58:53.021Z,8.68
2019-01-02T01:59:32.616Z,8.80
2019-01-02T02:00:14.952Z,9.00
2019-01-02T02:00:54.339Z,8.20
2019-01-02T02:01:33.575Z,8.03
2019-01-02T02:02:13.163Z,8.33
2019-01-02T02:02:53.833Z,8.43
2019-01-02T02:03:33.447Z,8.58
2019-01-02T02:04:12.804Z,7.97
2019-01-02T02:04:54.639Z,7.87
2019-01-02T02:05:33.947Z,8.68
2019-01-02T02:06:13.346Z,7.87
2019-01-02T02:06:52.547Z,8.30
2019-01-02T02:07:31.548Z,8.40
2019-01-02T02:08:10.491Z,8.10
2019-01-02T02:08:49.598Z,8.40
2019-01-02T02:09:28.966Z,7.73
2019-01-02T02:10:08.137Z,7.85
2019-01-02T02:10:46.865Z,8.45
2019-01-02T02:11:26.055Z,7.80
2019-01-02T02:12:06.348Z,8.15
2019-01-02T02:12:45.919Z,8.15
2019-01-02T02:13:25.254Z,8.18
2019-01-02T02:14:04.350Z,8.83
2019-01-02T02:14:43.829Z,8.63
2019-01-02T02:15:22.452Z,8.30
2019-01-02T02:16:01.488Z,8.93
2019-01-02T02:16:41.084Z,9.70
2019-01-02T02:17:20.004Z,7.95
2019-01-02T02:17:58.794Z,8.73
2019-01-02T02:18:37.416Z,8.40
2019-01-02T02:19:16.840Z,8.15
2019-01-02T02:19:56.172Z,7.67
2019-01-02T02:20:35.857Z,8.30
2019-01-02T02:21:15.060Z,8.03
2019-01-02T02:21:54.212Z,8.53
2019-01-02T02:22:33.612Z,8.00
2019-01-02T02:23:13.021Z,7.90
2019-01-02T02:23:52.106Z,8.20
2019-01-02T02:24:30.728Z,8.30
2019-01-02T02:25:12.049Z,8.33
2019-01-02T02:25:50.805Z,8.53
2019-01-02T02:26:32.258Z,8.48
2019-01-02T02:27:11.651Z,8.20
2019-01-02T02:27:50.528Z,8.33
2019-01-02T02:28:29.591Z,7.95
2019-01-02T02:29:08.375Z,8.25
2019-01-02T02:29:47.406Z,7.25
2019-01-02T02:30:26.818Z,8.03
2019-01-02T02:31:06.338Z,7.80
2019-01-02T02:31:45.338Z,8.25
2019-01-02T02:32:24.172Z,7.80
2019-01-02T02:33:03.745Z,7.53
2019-01-02T02:33:42.566Z,6.90
2019-01-02T02:34:21.562Z,7.17
2019-01-02T02:35:01.159Z,7.62
2019-01-02T02:35:39.829Z,7.40
2019-01-02T02:36:20.800Z,7.80
2019-01-02T02:36:59.723Z,7.08
2019-01-02T02:37:38.817Z,7.03
2019-01-02T02:38:18.038Z,7.75
2019-01-02T02:38:57.582Z,7.03
2019-01-02T02:39:36.531Z,8.40
2019-01-02T02:40:16.268Z,7.30
2019-01-02T02:40:55.048Z,8.30
2019-01-02T02:41:35.380Z,7.60
2019-01-02T02:42:18.091Z,7.78
2019-01-02T02:42:57.203Z,7.80
2019-01-02T02:43:36.370Z,7.42
2019-01-02T02:44:15.430Z,7.62
2019-01-02T02:44:54.900Z,7.43
2019-01-02T02:45:33.924Z,7.10
2019-01-02T02:46:13.081Z,7.22
2019-01-02T02:46:52.408Z,6.92
2019-01-02T02:47:31.598Z,7.77
2019-01-02T02:48:10.555Z,7.27
2019-01-02T02:48:49.943Z,7.53
2019-01-02T02:49:29.339Z,7.83
2019-01-02T02:50:08.982Z,7.92
2019-01-02T02:50:48.308Z,7.07
2019-01-02T02:51:27.642Z,8.03
2019-01-02T02:52:07.250Z,7.73
2019-01-02T02:52:46.422Z,6.90
2019-01-02T02:53:25.458Z,8.50
2019-01-02T02:54:04.562Z,7.60
2019-01-02T02:54:43.651Z,8.80
2019-01-02T02:55:27.996Z,8.18
2019-01-02T02:56:06.618Z,7.60
2019-01-02T02:56:46.093Z,7.53
2019-01-02T02:57:25.156Z,7.55
2019-01-02T02:58:04.416Z,7.97
2019-01-02T02:58:43.192Z,7.80
2019-01-02T02:59:22.216Z,8.10
2019-01-02T03:00:01.238Z,7.33
2019-01-02T03:00:40.561Z,7.30
2019-01-02T03:01:19.638Z,7.47
2019-01-02T03:01:59.125Z,6.90
2019-01-02T03:02:38.690Z,7.28
2019-01-02T03:03:18.157Z,8.00
2019-01-02T03:03:57.532Z,7.25
2019-01-02T03:04:37.131Z,7.07
2019-01-02T03:05:17.351Z,6.55
2019-01-02T03:05:56.988Z,6.97
2019-01-02T03:06:35.649Z,6.83
2019-01-02T03:07:15.398Z,7.50
2019-01-02T03:07:54.353Z,7.10
2019-01-02T03:08:33.471Z,6.22
2019-01-02T03:09:13.069Z,6.30
2019-01-02T03:09:55.647Z,6.60
2019-01-02T03:10:36.223Z,6.40
2019-01-02T03:11:15.990Z,6.62
2019-01-02T03:11:55.521Z,6.80
2019-01-02T03:12:34.170Z,7.00
2019-01-02T03:13:13.297Z,7.27
2019-01-02T03:13:52.584Z,6.20
2019-01-02T03:14:31.698Z,6.80
2019-01-02T03:15:11.446Z,6.70
2019-01-02T03:15:50.930Z,7.37
2019-01-02T03:16:30.273Z,6.70
2019-01-02T03:17:09.830Z,6.60
2019-01-02T03:17:49.584Z,7.03
2019-01-02T03:18:28.901Z,7.20
2019-01-02T03:19:08.235Z,6.22
2019-01-02T03:19:47.414Z,7.22
2019-01-02T03:20:26.371Z,7.15
2019-01-02T03:21:05.664Z,7.10
2019-01-02T03:21:44.398Z,7.85
2019-01-02T03:22:23.388Z,7.43
2019-01-02T03:23:03.833Z,6.42
2019-01-02T03:23:42.844Z,6.50
2019-01-02T03:24:22.221Z,6.20
2019-01-02T03:25:01.353Z,6.72
2019-01-02T03:25:40.711Z,7.15
2019-01-02T03:26:20.431Z,6.45
2019-01-02T03:26:59.209Z,6.37
2019-01-02T03:27:40.017Z,6.60
2019-01-02T03:28:19.119Z,7.10
2019-01-02T03:29:00.734Z,6.83
2019-01-02T03:29:40.219Z,7.12
2019-01-02T03:30:21.372Z,6.50
2019-01-02T03:31:00.911Z,7.10
2019-01-02T03:31:40.338Z,6.62
2019-01-02T03:32:19.821Z,6.97
2019-01-02T03:32:58.717Z,7.37
2019-01-02T03:33:37.588Z,7.20
2019-01-02T03:34:16.296Z,6.87
2019-01-02T03:34:55.011Z,6.53
2019-01-02T03:35:34.038Z,6.97
2019-01-02T03:36:13.351Z,6.43
2019-01-02T03:36:52.651Z,6.80
2019-01-02T03:37:31.987Z,6.30
2019-01-02T03:38:11.295Z,6.30
2019-01-02T03:38:51.046Z,6.20
2019-01-02T03:39:30.252Z,6.30
2019-01-02T03:40:09.257Z,5.80
2019-01-02T03:40:51.273Z,5.60
2019-01-02T03:41:30.283Z,5.77
2019-01-02T03:42:09.304Z,6.60
2019-01-02T03:42:48.030Z,5.97
2019-01-02T03:43:27.551Z,7.90
2019-01-02T03:44:06.190Z,6.50
2019-01-02T03:44:44.785Z,6.67
2019-01-02T03:45:24.098Z,5.75
2019-01-02T03:46:03.255Z,6.00
2019-01-02T03:46:42.539Z,6.40
2019-01-02T03:47:22.066Z,6.23
2019-01-02T03:48:01.890Z,6.50
2019-01-02T03:48:41.712Z,6.87
2019-01-02T03:49:21.079Z,6.63
2019-01-02T03:50:00.441Z,6.00
2019-01-02T03:50:39.501Z,7.07
2019-01-02T03:51:19.020Z,7.20
2019-01-02T03:51:58.001Z,6.60
2019-01-02T03:52:38.362Z,6.73
2019-01-02T03:53:17.038Z,6.10
2019-01-02T03:53:56.026Z,6.12
2019-01-02T03:54:34.698Z,6.53
2019-01-02T03:55:14.072Z,7.10
2019-01-02T03:55:53.298Z,7.07
2019-01-02T03:56:32.066Z,6.37
2019-01-02T03:57:11.236Z,7.20
2019-01-02T03:57:50.606Z,6.97
2019-01-02T03:58:29.381Z,6.60
2019-01-02T03:59:08.013Z,7.27
2019-01-02T03:59:46.707Z,6.50
2019-01-02T04:00:28.840Z,6.77
2019-01-02T04:01:07.537Z,6.70
2019-01-02T04:01:49.202Z,6.80
2019-01-02T04:02:30.795Z,6.43
2019-01-02T04:03:09.929Z,8.00
2019-01-02T04:03:48.657Z,5.90
2019-01-02T04:04:27.346Z,6.20
2019-01-02T04:05:06.208Z,6.90
2019-01-02T04:05:45.306Z,6.13
2019-01-02T04:06:24.760Z,5.83
2019-01-02T04:07:03.427Z,5.77
2019-01-02T04:07:42.228Z,5.83
2019-01-02T04:08:21.394Z,5.50
2019-01-02T04:09:02.569Z,5.95
2019-01-02T04:09:41.957Z,5.30
2019-01-02T04:10:21.271Z,5.75
2019-01-02T04:11:00.645Z,5.33
2019-01-02T04:11:39.434Z,5.95
2019-01-02T04:12:21.161Z,5.97
2019-01-02T04:13:00.668Z,6.07
2019-01-02T04:13:39.451Z,6.00
2019-01-02T04:14:18.217Z,6.30
2019-01-02T04:14:57.570Z,5.87
2019-01-02T04:15:36.728Z,6.20
2019-01-02T04:16:15.751Z,5.80
2019-01-02T04:16:55.076Z,6.47
2019-01-02T04:17:34.705Z,6.40
2019-01-02T04:18:13.425Z,5.53
2019-01-02T04:18:52.810Z,5.70
2019-01-02T04:19:31.526Z,5.83
2019-01-02T04:20:10.202Z,6.90
2019-01-02T04:20:49.621Z,6.33
2019-01-02T04:21:28.271Z,5.77
2019-01-02T04:22:06.933Z,5.77
2019-01-02T04:22:45.780Z,6.57
2019-01-02T04:23:25.233Z,5.33
2019-01-02T04:24:04.563Z,5.57
2019-01-02T04:24:44.076Z,5.63
2019-01-02T04:25:23.487Z,6.00
2019-01-02T04:26:05.335Z,6.20
2019-01-02T04:26:44.780Z,6.57
2019-01-02T04:27:23.446Z,6.33
2019-01-02T04:28:03.072Z,6.30
2019-01-02T04:28:42.371Z,6.30
2019-01-02T04:29:21.828Z,5.73
2019-01-02T04:30:00.461Z,6.13
2019-01-02T04:30:39.124Z,5.90
2019-01-02T04:31:17.912Z,6.17
2019-01-02T04:31:56.624Z,5.37
2019-01-02T04:32:35.674Z,5.50
2019-01-02T04:33:15.120Z,5.90
2019-01-02T04:33:54.504Z,6.27
2019-01-02T04:34:34.003Z,6.03
2019-01-02T04:35:13.547Z,6.00
2019-01-02T04:35:52.237Z,5.30
2019-01-02T04:36:31.484Z,6.13
2019-01-02T04:37:10.108Z,5.40
2019-01-02T04:37:48.761Z,5.90
2019-01-02T04:38:27.711Z,6.10
2019-01-02T04:39:10.033Z,6.27
2019-01-02T04:39:48.661Z,5.73
2019-01-02T04:40:27.829Z,6.03
2019-01-02T04:41:06.599Z,5.83
2019-01-02T04:41:45.767Z,5.40
2019-01-02T04:42:24.485Z,6.27
2019-01-02T04:43:04.056Z,5.50
2019-01-02T04:43:43.323Z,5.93
2019-01-02T04:44:22.025Z,5.87
2019-01-02T04:45:01.378Z,6.30
2019-01-02T04:45:42.687Z,6.20
2019-01-02T04:46:21.875Z,6.15
2019-01-02T04:47:01.274Z,5.63
2019-01-02T04:47:43.194Z,6.40
2019-01-02T04:48:21.875Z,5.87
2019-01-02T04:49:00.666Z,5.90
2019-01-02T04:49:39.733Z,6.30
2019-01-02T04:50:19.116Z,6.23
2019-01-02T04:50:58.431Z,5.70
2019-01-02T04:51:37.734Z,5.60
2019-01-02T04:52:16.411Z,6.37
2019-01-02T04:52:55.069Z,5.73
2019-01-02T04:53:33.839Z,6.20
2019-01-02T04:54:12.538Z,6.17
2019-01-02T04:54:51.137Z,6.43
2019-01-02T04:55:29.967Z,5.80
2019-01-02T04:56:08.923Z,6.40
2019-01-02T04:56:48.008Z,6.60
2019-01-02T04:57:26.791Z,5.70
2019-01-02T04:58:06.331Z,6.00
2019-01-02T04:58:45.634Z,6.20
2019-01-02T04:59:25.136Z,6.83
2019-01-02T05:00:04.612Z,6.45
2019-01-02T05:00:43.165Z,5.93
2019-01-02T05:01:21.951Z,6.60
2019-01-02T05:02:00.869Z,5.70
2019-01-02T05:02:39.705Z,6.00
2019-01-02T05:03:18.378Z,6.10
2019-01-02T05:03:57.008Z,5.93
2019-01-02T05:04:36.254Z,6.50
2019-01-02T05:05:14.967Z,6.20
2019-01-02T05:05:53.593Z,6.77
2019-01-02T05:06:32.295Z,6.67
2019-01-02T05:07:11.194Z,5.70
2019-01-02T05:07:50.333Z,6.23
2019-01-02T05:08:29.792Z,6.20
2019-01-02T05:09:10.158Z,6.87
2019-01-02T05:09:49.393Z,6.77
2019-01-02T05:10:28.880Z,6.10
2019-01-02T05:11:10.398Z,6.40
2019-01-02T05:11:49.469Z,6.40
2019-01-02T05:12:28.568Z,5.80
2019-01-02T05:13:07.226Z,6.47
2019-01-02T05:13:46.527Z,6.00
2019-01-02T05:14:25.176Z,5.73
2019-01-02T05:15:04.456Z,5.80
2019-01-02T05:15:43.116Z,6.30
2019-01-02T05:16:21.760Z,6.30
2019-01-02T05:17:01.092Z,5.87
2019-01-02T05:17:40.448Z,6.37
2019-01-02T05:18:19.990Z,6.70
2019-01-02T05:18:59.007Z,6.13
2019-01-02T05:19:38.452Z,5.80
2019-01-02T05:20:18.664Z,6.10
2019-01-02T05:20:58.140Z,6.80
2019-01-02T05:21:37.389Z,6.77
2019-01-02T05:22:16.841Z,7.17
2019-01-02T05:22:55.680Z,6.10
2019-01-02T05:23:34.454Z,6.30
2019-01-02T05:24:13.034Z,6.50
2019-01-02T05:24:53.096Z,6.03
2019-01-02T05:25:31.796Z,6.17
2019-01-02T05:26:10.879Z,6.67
2019-01-02T05:26:50.164Z,6.37
2019-01-02T05:27:29.410Z,6.73
2019-01-02T05:28:08.695Z,6.63
2019-01-02T05:28:48.218Z,6.67
2019-01-02T05:29:26.792Z,6.30
2019-01-02T05:30:05.450Z,6.23
2019-01-02T05:30:45.048Z,6.73
2019-01-02T05:31:23.719Z,6.30
2019-01-02T05:32:02.455Z,6.10
2019-01-02T05:32:41.181Z,6.50
2019-01-02T05:33:20.469Z,6.93
2019-01-02T05:33:59.108Z,6.33
2019-01-02T05:34:38.468Z,6.90
2019-01-02T05:35:17.208Z,6.67
2019-01-02T05:35:56.357Z,5.53
2019-01-02T05:36:35.012Z,6.37
2019-01-02T05:37:13.666Z,6.93
2019-01-02T05:37:55.851Z,5.97
2019-01-02T05:38:34.450Z,6.40
2019-01-02T05:39:13.485Z,6.33
2019-01-02T05:39:52.421Z,6.33
2019-01-02T05:40:31.588Z,6.80
2019-01-02T05:41:10.309Z,6.37
2019-01-02T05:41:49.834Z,6.00
2019-01-02T05:42:28.945Z,7.00
2019-01-02T05:43:07.766Z,5.93
2019-01-02T05:43:46.495Z,6.37
2019-01-02T05:44:25.841Z,6.00
2019-01-02T05:45:04.586Z,5.57
2019-01-02T05:45:43.217Z,6.53
2019-01-02T05:46:22.351Z,6.13
2019-01-02T05:47:01.264Z,5.90
2019-01-02T05:47:41.391Z,6.33
2019-01-02T05:48:21.774Z,7.00
2019-01-02T05:49:00.966Z,6.00
2019-01-02T05:49:40.277Z,6.23
2019-01-02T05:50:19.011Z,6.20
2019-01-02T05:50:58.373Z,5.93
2019-01-02T05:51:37.843Z,7.00
2019-01-02T05:52:16.927Z,6.60
2019-01-02T05:52:55.592Z,6.30
2019-01-02T05:53:34.428Z,6.50
2019-01-02T05:54:13.398Z,6.50
2019-01-02T05:54:52.688Z,7.00
2019-01-02T05:55:31.734Z,6.27
2019-01-02T05:56:11.061Z,6.30
2019-01-02T05:56:50.528Z,6.47
2019-01-02T05:57:29.155Z,6.30
2019-01-02T05:58:07.800Z,6.93
2019-01-02T05:58:46.482Z,6.67
2019-01-02T05:59:25.285Z,6.70
2019-01-02T06:00:06.827Z,6.50
2019-01-02T06:00:45.635Z,6.40
2019-01-02T06:01:24.343Z,6.83
2019-01-02T06:02:03.418Z,6.97
2019-01-02T06:02:42.301Z,6.57
2019-01-02T06:03:20.984Z,6.60
2019-01-02T06:03:59.591Z,6.00
2019-01-02T06:04:38.660Z,6.57
2019-01-02T06:05:17.949Z,6.60
2019-01-02T06:05:56.751Z,6.20
2019-01-02T06:06:35.486Z,6.80
2019-01-02T06:07:14.536Z,6.23
2019-01-02T06:07:53.169Z,5.83
2019-01-02T06:08:32.639Z,6.40
2019-01-02T06:09:12.431Z,6.13
2019-01-02T06:09:51.207Z,6.50
2019-01-02T06:10:34.483Z,6.00
2019-01-02T06:11:13.760Z,6.20
2019-01-02T06:11:53.488Z,6.60
2019-01-02T06:12:32.952Z,6.40
2019-01-02T06:13:12.158Z,6.47
2019-01-02T06:13:51.375Z,6.33
2019-01-02T06:14:30.575Z,6.47
2019-01-02T06:15:09.866Z,6.40
2019-01-02T06:15:57.380Z,5.83
2019-01-02T06:16:31.033Z,6.50
2019-01-02T06:17:10.508Z,6.40
2019-01-02T06:17:49.286Z,6.03
2019-01-02T06:18:27.950Z,6.20
2019-01-02T06:19:06.728Z,6.67
2019-01-02T06:19:45.599Z,7.13
2019-01-02T06:20:24.570Z,6.90
2019-01-02T06:21:03.806Z,6.17
2019-01-02T06:21:43.112Z,6.23
2019-01-02T06:22:21.846Z,6.63
2019-01-02T06:23:03.615Z,6.63
2019-01-02T06:23:42.786Z,5.93
2019-01-02T06:24:21.476Z,6.90
2019-01-02T06:25:00.394Z,6.20
2019-01-02T06:25:39.041Z,5.80
2019-01-02T06:26:18.312Z,6.50
2019-01-02T06:26:57.383Z,5.97
2019-01-02T06:27:36.666Z,6.13
2019-01-02T06:28:15.972Z,6.50
2019-01-02T06:28:55.961Z,5.80
2019-01-02T06:29:35.138Z,5.73
2019-01-02T06:30:16.312Z,6.30
2019-01-02T06:30:55.543Z,5.83
2019-01-02T06:31:34.281Z,5.93
2019-01-02T06:32:13.569Z,5.73
2019-01-02T06:32:52.158Z,6.10
2019-01-02T06:33:30.895Z,6.40
2019-01-02T06:34:10.678Z,5.70
2019-01-02T06:34:49.254Z,5.23
2019-01-02T06:35:28.157Z,6.33
2019-01-02T06:36:07.655Z,6.03
2019-01-02T06:36:46.829Z,5.90
2019-01-02T06:37:25.992Z,5.43
2019-01-02T06:38:05.345Z,5.70
2019-01-02T06:38:44.478Z,6.30
2019-01-02T06:39:23.835Z,5.90
2019-01-02T06:40:02.674Z,6.03
2019-01-02T06:40:41.262Z,6.00
2019-01-02T06:41:19.891Z,6.20
2019-01-02T06:41:58.787Z,5.70
2019-01-02T06:42:39.147Z,5.93
2019-01-02T06:43:17.883Z,6.23
2019-01-02T06:43:56.933Z,6.13
2019-01-02T06:44:35.617Z,6.50
2019-01-02T06:45:16.208Z,5.90
2019-01-02T06:45:57.788Z,5.93
2019-01-02T06:46:36.854Z,6.63
2019-01-02T06:47:16.473Z,6.00
2019-01-02T06:47:55.170Z,5.93
2019-01-02T06:48:34.654Z,6.20
2019-01-02T06:49:13.883Z,5.70
2019-01-02T06:49:52.632Z,5.77
2019-01-02T06:50:31.807Z,5.50
2019-01-02T06:51:10.451Z,5.63
2019-01-02T06:51:49.471Z,6.30
2019-01-02T06:52:28.721Z,6.07
2019-01-02T06:53:08.034Z,6.13
2019-01-02T06:53:46.551Z,5.70
2019-01-02T06:54:25.196Z,5.93
2019-01-02T06:55:04.355Z,5.73
2019-01-02T06:55:43.127Z,5.30
2019-01-02T06:56:21.813Z,6.03
2019-01-02T06:57:00.543Z,6.33
2019-01-02T06:57:39.424Z,6.37
2019-01-02T06:58:18.354Z,5.53
2019-01-02T06:58:57.547Z,5.43
2019-01-02T06:59:36.864Z,5.77
2019-01-02T07:00:18.473Z,5.97
2019-01-02T07:00:58.081Z,6.20
2019-01-02T07:01:37.239Z,5.77
2019-01-02T07:02:16.655Z,5.97
2019-01-02T07:03:15.117Z,5.00
2019-01-02T07:03:53.833Z,5.90
2019-01-02T07:04:32.736Z,6.20
2019-01-02T07:05:11.838Z,5.40
2019-01-02T07:05:50.616Z,5.57
2019-01-02T07:06:29.640Z,5.10
2019-01-02T07:07:09.038Z,5.00
2019-01-02T07:07:48.273Z,5.37
2019-01-02T07:08:27.354Z,5.33
2019-01-02T07:09:07.125Z,5.80
2019-01-02T07:09:46.211Z,5.80
2019-01-02T07:10:25.474Z,5.70
2019-01-02T07:11:04.164Z,5.90
2019-01-02T07:11:43.303Z,5.53
2019-01-02T07:12:21.851Z,5.37
2019-01-02T07:13:00.679Z,5.40
2019-01-02T07:13:39.676Z,5.63
2019-01-02T07:14:18.364Z,5.60
2019-01-02T07:14:57.105Z,5.57
2019-01-02T07:15:35.757Z,5.70
2019-01-02T07:16:14.696Z,5.37
2019-01-02T07:16:53.963Z,5.87
2019-01-02T07:17:32.705Z,5.07
2019-01-02T07:18:11.685Z,4.80
2019-01-02T07:18:50.814Z,5.20
2019-01-02T07:19:29.521Z,5.10
2019-01-02T07:20:09.481Z,5.37
2019-01-02T07:20:48.683Z,4.87
2019-01-02T07:21:27.926Z,5.87
2019-01-02T07:22:07.460Z,5.57
2019-01-02T07:22:46.962Z,5.93
2019-01-02T07:23:25.572Z,4.53
2019-01-02T07:24:04.722Z,5.40
2019-01-02T07:24:43.378Z,5.60
2019-01-02T07:25:21.959Z,5.40
2019-01-02T07:26:01.099Z,4.83
2019-01-02T07:26:40.242Z,5.00
2019-01-02T07:27:19.488Z,6.03
2019-01-02T07:28:00.495Z,5.00
2019-01-02T07:28:39.668Z,6.00
2019-01-02T07:29:19.136Z,5.50
2019-01-02T07:29:58.485Z,5.70
2019-01-02T07:30:38.289Z,4.70
2019-01-02T07:31:16.925Z,4.73
2019-01-02T07:31:55.828Z,5.00
2019-01-02T07:32:34.616Z,6.20
2019-01-02T07:33:13.387Z,5.67
2019-01-02T07:33:59.466Z,5.50
2019-01-02T07:35:04.740Z,5.47
2019-01-02T07:36:30.708Z,4.73
2019-01-02T07:37:58.198Z,5.30
2019-01-02T07:38:48.005Z,4.97
2019-01-02T07:40:14.646Z,4.90
2019-01-02T07:41:28.573Z,4.93
2019-01-02T07:42:57.005Z,5.20
2019-01-02T07:44:13.367Z,5.00
2019-01-02T07:45:33.341Z,5.10
2019-01-02T07:47:04.644Z,5.30
2019-01-02T07:48:28.570Z,4.80
2019-01-02T07:50:01.982Z,4.83
2019-01-02T07:51:31.987Z,5.10
2019-01-02T07:52:41.399Z,4.93
2019-01-02T07:53:58.081Z,4.90
2019-01-02T07:54:50.990Z,5.00
2019-01-02T07:56:03.194Z,4.50
2019-01-02T07:57:17.711Z,4.60
2019-01-02T07:58:20.358Z,5.50
2019-01-02T07:59:32.962Z,5.00
2019-01-02T08:00:46.848Z,5.10
2019-01-02T08:02:00.638Z,4.50
2019-01-02T08:03:25.825Z,4.67
2019-01-02T08:04:25.206Z,5.13
2019-01-02T08:05:38.724Z,5.10
2019-01-02T08:07:02.233Z,5.40
2019-01-02T08:08:14.663Z,4.27
2019-01-02T08:09:32.574Z,4.27
2019-01-02T08:11:05.886Z,4.80
2019-01-02T08:12:24.188Z,4.80
2019-01-02T08:13:29.521Z,4.60
2019-01-02T08:14:42.895Z,4.63
2019-01-02T08:16:09.832Z,4.87
2019-01-02T08:17:27.917Z,4.47
2019-01-02T08:18:31.385Z,4.97
2019-01-02T08:19:38.005Z,4.50
2019-01-02T08:20:47.556Z,5.00
2019-01-02T08:22:00.051Z,4.60
2019-01-02T08:23:12.463Z,4.30
2019-01-02T08:24:16.479Z,4.60
2019-01-02T08:25:40.082Z,5.00
2019-01-02T08:27:06.697Z,4.50
2019-01-02T08:28:07.988Z,4.40
2019-01-02T08:29:14.069Z,4.57
2019-01-02T08:30:14.325Z,4.37
2019-01-02T08:31:47.342Z,4.10
2019-01-02T08:33:26.584Z,4.50
2019-01-02T08:34:25.257Z,4.90
2019-01-02T08:35:46.594Z,4.00
2019-01-02T08:37:06.163Z,4.57
2019-01-02T08:38:21.114Z,4.50
2019-01-02T08:39:35.750Z,4.30
2019-01-02T08:40:43.072Z,4.62
2019-01-02T08:42:06.068Z,4.10
2019-01-02T08:43:24.372Z,4.93
2019-01-02T08:44:32.729Z,4.23
2019-01-02T08:46:02.988Z,4.37
2019-01-02T08:47:35.761Z,4.20
2019-01-02T08:48:43.794Z,4.72
2019-01-02T08:49:55.086Z,4.17
2019-01-02T08:51:12.226Z,4.83
2019-01-02T08:52:24.166Z,4.70
2019-01-02T08:53:52.032Z,4.77
2019-01-02T08:55:25.424Z,4.33
2019-01-02T08:56:37.536Z,4.40
2019-01-02T08:58:00.935Z,4.50
2019-01-02T08:58:50.981Z,4.43
2019-01-02T09:00:10.957Z,4.57
2019-01-02T09:01:32.317Z,4.17
2019-01-02T09:03:02.824Z,4.20
2019-01-02T09:04:08.401Z,4.50
2019-01-02T09:05:39.470Z,4.50
2019-01-02T09:06:56.328Z,4.00
2019-01-02T09:08:21.496Z,4.70
2019-01-02T09:09:45.999Z,4.80
2019-01-02T09:10:56.071Z,4.53
2019-01-02T09:12:03.128Z,4.53
2019-01-02T09:13:27.269Z,4.67
2019-01-02T09:14:39.461Z,4.83
2019-01-02T09:16:03.053Z,4.30
2019-01-02T09:16:58.675Z,4.60
2019-01-02T09:18:26.108Z,4.40
2019-01-02T09:19:48.570Z,4.30
2019-01-02T09:21:16.834Z,4.00
2019-01-02T09:22:26.867Z,4.07
2019-01-02T09:23:43.967Z,4.60
2019-01-02T09:24:46.671Z,4.40
2019-01-02T09:25:55.340Z,4.40
2019-01-02T09:26:48.915Z,3.97
2019-01-02T09:28:01.344Z,4.10
2019-01-02T09:29:20.778Z,4.43
2019-01-02T09:30:49.440Z,3.90
2019-01-02T09:32:09.690Z,4.27
2019-01-02T09:33:23.859Z,4.43
2019-01-02T09:34:18.274Z,4.40
2019-01-02T09:35:47.549Z,4.37
2019-01-02T09:37:01.453Z,4.40
2019-01-02T09:38:13.024Z,4.90
2019-01-02T09:39:17.918Z,4.97
2019-01-02T09:40:39.844Z,4.30
2019-01-02T09:42:09.932Z,5.03
2019-01-02T09:43:33.433Z,4.90
2019-01-02T09:45:02.179Z,4.70